Time;durP1;ratioP1;P1;durP2;ratioP2;P2;SDS_P1;SDS_P2;PMS_P1;PMS_P2;Temp;Humidity;BMP_temperature;BMP_pressure;BME280_temperature;BME280_humidity;BME280_pressure;Samples;Min_cycle;Max_cycle;Signal;HPM_P1;HPM_P2
2022/11/11 00:01:39;;;;;;;;;;;;;;;12.37;100.00;102103.69;6317232;22;19989;-81
2022/11/11 00:04:23;;;;;;;;;;;;;;;12.34;100.00;102095.16;6319441;22;20344;-82
2022/11/11 00:07:07;;;;;;;;;;;;;;;12.50;100.00;102095.47;6316997;22;19918;-82
2022/11/11 00:10:14;;;;;;;;;;;;;;;12.36;100.00;102087.88;6315360;22;19917;-81
2022/11/11 00:12:59;;;;;;;;;;;;;;;12.25;100.00;102085.31;6314249;22;19918;-82
2022/11/11 00:15:43;;;;;;;;;;;;;;;12.25;100.00;102088.84;6314939;22;20002;-81
2022/11/11 00:25:08;;;;;;;;;;;;;;;12.10;100.00;102110.56;6319344;22;19933;-82
2022/11/11 00:27:52;;;;;;;;;;;;;;;12.00;100.00;102118.50;6323128;22;19942;-82
2022/11/11 00:30:39;;;;;;;;;;;;;;;11.91;100.00;102122.81;6310079;22;19917;-82
2022/11/11 00:33:23;;;;;;;;;;;;;;;11.88;100.00;102120.41;6337463;22;19950;-82
2022/11/11 00:36:07;;;;;;;;;;;;;;;11.88;100.00;102125.72;6336553;22;19921;-83
2022/11/11 00:38:54;;;;;;;;;;;;;;;11.96;100.00;102116.25;6327604;22;19922;-82
2022/11/11 00:41:39;;;;;;;;;;;;;;;12.07;100.00;102119.66;6317251;22;19917;-82
2022/11/11 00:44:23;;;;;;;;;;;;;;;12.02;100.00;102107.75;6294767;22;19933;-81
2022/11/11 00:53:17;;;;;;;;;;;;;;;12.20;100.00;102114.13;6316172;22;19956;-82
2022/11/11 00:56:01;;;;;;;;;;;;;;;12.17;100.00;102109.91;6316429;22;19921;-83
2022/11/11 00:58:46;;;;;;;;;;;;;;;12.21;100.00;102110.50;6310691;22;19934;-82
2022/11/11 01:01:30;;;;;;;;;;;;;;;12.16;100.00;102107.41;6309624;22;19914;-81
2022/11/11 01:04:14;;;;;;;;;;;;;;;12.32;100.00;102107.75;6310453;22;19934;-79
2022/11/11 01:06:58;;;;;;;;;;;;;;;12.31;100.00;102106.06;6311961;22;19917;-82
2022/11/11 01:09:42;;;;;;;;;;;;;;;12.31;100.00;102100.72;6314419;22;19993;-81
2022/11/11 01:12:26;;;;;;;;;;;;;;;12.34;100.00;102095.16;6288408;22;20340;-84
2022/11/11 01:15:10;;;;;;;;;;;;;;;12.40;100.00;102092.78;6309861;22;19917;-82
2022/11/11 01:17:54;;;;;;;;;;;;;;;12.49;100.00;102093.81;6312559;22;19964;-82
2022/11/11 01:20:38;;;;;;;;;;;;;;;12.48;100.00;102100.09;6312069;22;20249;-81
2022/11/11 01:23:26;;;;;;;;;;;;;;;12.17;100.00;102098.44;6314600;22;19918;-82
2022/11/11 01:26:20;;;;;;;;;;;;;;;12.19;100.00;102101.81;6311374;22;19980;-84
2022/11/11 01:29:03;;;;;;;;;;;;;;;12.33;100.00;102102.28;6312856;22;19921;-82
2022/11/11 01:31:47;;;;;;;;;;;;;;;12.50;100.00;102106.09;6314402;22;19917;-82
2022/11/11 01:34:31;;;;;;;;;;;;;;;12.61;100.00;102098.03;6291440;22;19975;-82
2022/11/11 01:37:15;;;;;;;;;;;;;;;12.64;100.00;102103.06;6315621;22;20242;-81
2022/11/11 01:39:59;;;;;;;;;;;;;;;12.44;100.00;102106.66;6319762;22;20295;-82
2022/11/11 01:42:51;;;;;;;;;;;;;;;12.35;100.00;102102.16;6316591;22;20294;-83
2022/11/11 01:45:54;;;;;;;;;;;;;;;12.58;100.00;102100.97;6314012;22;20344;-85
2022/11/11 01:52:09;;;;;;;;;;;;;;;12.57;100.00;102101.94;6312537;22;19917;-83
2022/11/11 01:54:56;;;;;;;;;;;;;;;12.54;100.00;102104.84;6312570;22;19961;-82
2022/11/11 01:57:45;;;;;;;;;;;;;;;12.35;100.00;102099.50;6314143;22;20296;-84
2022/11/11 02:00:29;;;;;;;;;;;;;;;12.56;100.00;102105.56;6335217;22;19937;-79
2022/11/11 02:03:13;;;;;;;;;;;;;;;12.33;100.00;102098.78;6300659;22;19918;-84
2022/11/11 02:05:58;;;;;;;;;;;;;;;12.60;100.00;102108.78;6313523;22;20258;-83
2022/11/11 02:08:42;;;;;;;;;;;;;;;12.67;100.00;102108.09;6313657;22;19961;-84
2022/11/11 02:14:36;;;;;;;;;;;;;;;12.64;100.00;102105.72;6311943;22;19964;-83
2022/11/11 02:17:20;;;;;;;;;;;;;;;12.58;100.00;102102.78;6311794;22;19918;-82
2022/11/11 02:20:04;;;;;;;;;;;;;;;12.66;100.00;102110.91;6312145;22;19921;-82
2022/11/11 02:22:56;;;;;;;;;;;;;;;12.67;100.00;102113.44;6289104;22;19956;-83
2022/11/11 02:25:43;;;;;;;;;;;;;;;12.71;100.00;102108.69;6311221;22;19997;-83
2022/11/11 02:28:27;;;;;;;;;;;;;;;12.63;100.00;102122.66;6310248;22;19961;-83
2022/11/11 02:31:12;;;;;;;;;;;;;;;12.77;100.00;102124.09;6286341;22;19917;-84
2022/11/11 02:33:56;;;;;;;;;;;;;;;12.87;100.00;102133.78;6308596;22;19937;-83
2022/11/11 02:36:41;;;;;;;;;;;;;;;12.76;100.00;102128.56;6308032;22;19968;-83
2022/11/11 02:39:26;;;;;;;;;;;;;;;12.78;100.00;102131.94;6308019;22;19951;-84
2022/11/11 02:42:12;;;;;;;;;;;;;;;12.85;100.00;102122.44;6308491;22;19917;-83
2022/11/11 02:44:57;;;;;;;;;;;;;;;12.69;100.00;102121.28;6308524;22;20333;-83
2022/11/11 02:47:41;;;;;;;;;;;;;;;12.88;100.00;102132.81;6308722;22;19933;-81
2022/11/11 02:50:26;;;;;;;;;;;;;;;12.85;100.00;102133.09;6308768;22;20292;-83
2022/11/11 02:53:11;;;;;;;;;;;;;;;12.91;100.00;102119.22;6314246;22;19933;-81
2022/11/11 02:55:55;;;;;;;;;;;;;;;12.86;100.00;102134.75;6320583;22;19921;-83
2022/11/11 02:58:39;;;;;;;;;;;;;;;12.94;100.00;102142.03;6326566;22;19978;-81
2022/11/11 03:01:23;;;;;;;;;;;;;;;13.01;100.00;102134.34;6333023;22;19913;-82
2022/11/11 03:04:08;;;;;;;;;;;;;;;12.86;100.00;102140.06;6333005;22;19909;-82
2022/11/11 03:06:52;;;;;;;;;;;;;;;12.87;100.00;102143.56;6320914;22;19982;-83
2022/11/11 03:09:36;;;;;;;;;;;;;;;12.98;100.00;102142.63;6309719;22;19953;-82
2022/11/11 03:12:22;;;;;;;;;;;;;;;13.01;100.00;102135.19;6309632;22;19914;-83
2022/11/11 03:15:06;;;;;;;;;;;;;;;12.94;100.00;102137.56;6308739;22;20301;-82
2022/11/11 03:17:50;;;;;;;;;;;;;;;12.80;100.00;102134.44;6285129;22;19917;-83
2022/11/11 03:23:37;;;;;;;;;;;;;;;12.78;100.00;102142.59;6320085;22;19921;-83
2022/11/11 03:26:21;;;;;;;;;;;;;;;12.82;100.00;102154.66;6335954;22;19947;-82
2022/11/11 03:29:05;;;;;;;;;;;;;;;12.91;100.00;102152.97;6325447;22;19963;-81
2022/11/11 03:31:49;;;;;;;;;;;;;;;12.90;100.00;102146.81;6333485;22;19972;-82
2022/11/11 03:34:33;;;;;;;;;;;;;;;12.89;100.00;102147.78;6306763;22;19942;-83
2022/11/11 03:40:20;;;;;;;;;;;;;;;13.12;100.00;102150.25;6308465;22;19917;-83
2022/11/11 03:43:04;;;;;;;;;;;;;;;13.07;100.00;102147.09;6308574;22;19921;-81
2022/11/11 03:45:49;;;;;;;;;;;;;;;13.06;100.00;102150.75;6308118;22;19917;-82
2022/11/11 03:48:33;;;;;;;;;;;;;;;13.13;100.00;102146.56;6308240;22;19917;-84
2022/11/11 03:51:17;;;;;;;;;;;;;;;12.99;100.00;102146.97;6308056;22;19918;-82
2022/11/11 03:54:01;;;;;;;;;;;;;;;13.08;100.00;102148.78;6308366;22;19917;-85
2022/11/11 03:56:45;;;;;;;;;;;;;;;12.91;100.00;102150.31;6307932;22;20241;-83
2022/11/11 03:59:29;;;;;;;;;;;;;;;13.00;100.00;102151.28;6307990;22;19918;-82
2022/11/11 04:11:27;;;;;;;;;;;;;;;12.88;100.00;102148.78;6308147;22;19957;-82
2022/11/11 04:17:16;;;;;;;;;;;;;;;13.00;100.00;102152.13;6309432;22;19917;-81
2022/11/11 04:23:02;;;;;;;;;;;;;;;12.70;100.00;102161.03;6309800;22;20250;-82
2022/11/11 04:25:54;;;;;;;;;;;;;;;12.71;100.00;102152.09;6309624;22;20001;-84
2022/11/11 04:32:34;;;;;;;;;;;;;;;12.56;100.00;102158.75;6309628;22;20003;-83
2022/11/11 04:34:47;;;;;;;;;;;;;;;12.48;100.00;102165.72;6309426;22;19964;-83
2022/11/11 04:37:32;;;;;;;;;;;;;;;12.69;100.00;102163.84;6317325;22;19936;-83
2022/11/11 04:43:21;;;;;;;;;;;;;;;12.51;100.00;102171.63;6328561;22;19918;-83
2022/11/11 04:46:05;;;;;;;;;;;;;;;12.39;100.00;102162.88;6323088;22;19921;-82
2022/11/11 04:48:50;;;;;;;;;;;;;;;12.38;100.00;102155.91;6326837;22;19944;-84
2022/11/11 04:56:46;;;;;;;;;;;;;;;12.24;100.00;102163.38;6310062;22;19960;-83
2022/11/11 04:57:41;;;;;;;;;;;;;;;12.11;100.00;102165.41;6311033;22;19918;-84
2022/11/11 05:00:25;;;;;;;;;;;;;;;12.17;100.00;102163.06;6306775;22;20033;-83
2022/11/11 05:03:16;;;;;;;;;;;;;;;12.23;100.00;102167.84;6318218;22;19914;-82
2022/11/11 05:09:03;;;;;;;;;;;;;;;12.13;100.00;102168.81;6308962;22;19996;-86
2022/11/11 05:11:47;;;;;;;;;;;;;;;12.03;100.00;102176.69;6294251;22;19917;-84
2022/11/11 05:26:43;;;;;;;;;;;;;;;11.86;100.00;102185.28;6308159;22;19996;-82
2022/11/11 05:29:27;;;;;;;;;;;;;;;11.83;100.00;102185.53;6285283;22;19918;-84
2022/11/11 05:32:14;;;;;;;;;;;;;;;11.95;100.00;102183.66;6309025;22;19917;-84
2022/11/11 05:34:58;;;;;;;;;;;;;;;11.89;100.00;102191.19;6306234;22;20026;-83
2022/11/11 05:37:42;;;;;;;;;;;;;;;11.93;100.00;102189.94;6306716;22;19921;-84
2022/11/11 05:40:27;;;;;;;;;;;;;;;11.96;100.00;102190.66;6306139;22;19956;-84
2022/11/11 05:43:11;;;;;;;;;;;;;;;11.93;100.00;102185.59;6310527;22;19922;-85
2022/11/11 05:45:55;;;;;;;;;;;;;;;11.96;100.00;102180.03;6307740;22;19964;-82
2022/11/11 05:49:13;;;;;;;;;;;;;;;12.08;100.00;102189.59;6309828;22;19918;-81
2022/11/11 05:51:44;;;;;;;;;;;;;;;11.91;100.00;102183.91;6309410;22;19967;-81
2022/11/11 05:54:28;;;;;;;;;;;;;;;11.82;100.00;102190.00;6308412;22;19922;-81
2022/11/11 05:57:12;;;;;;;;;;;;;;;11.99;100.00;102185.06;6307677;22;19956;-85
2022/11/11 05:59:57;;;;;;;;;;;;;;;11.74;100.00;102194.25;6309443;22;19918;-83
2022/11/11 06:02:41;;;;;;;;;;;;;;;11.71;100.00;102191.88;6310749;22;19971;-88
2022/11/11 06:05:28;;;;;;;;;;;;;;;11.66;100.00;102205.53;6313875;22;19933;-83
2022/11/11 06:08:13;;;;;;;;;;;;;;;11.62;100.00;102209.41;6306690;22;19925;-81
2022/11/11 06:10:58;;;;;;;;;;;;;;;11.63;100.00;102205.78;6314744;22;19918;-87
2022/11/11 06:13:41;;;;;;;;;;;;;;;11.65;100.00;102209.13;6330817;22;19921;-88
2022/11/11 06:16:25;;;;;;;;;;;;;;;11.63;100.00;102216.41;6303542;22;19918;-86
2022/11/11 06:19:09;;;;;;;;;;;;;;;11.60;100.00;102216.63;6313599;22;19918;-83
2022/11/11 06:28:19;;;;;;;;;;;;;;;11.49;100.00;102222.00;6335934;22;19941;-82
2022/11/11 06:31:06;;;;;;;;;;;;;;;11.50;100.00;102221.00;6328806;22;19941;-87
2022/11/11 06:33:50;;;;;;;;;;;;;;;11.60;100.00;102226.44;6311400;22;19918;-85
2022/11/11 06:36:34;;;;;;;;;;;;;;;11.42;100.00;102234.09;6309158;22;19921;-83
2022/11/11 06:39:18;;;;;;;;;;;;;;;11.45;100.00;102244.47;6308621;22;19967;-83
2022/11/11 06:42:02;;;;;;;;;;;;;;;11.47;100.00;102242.50;6311111;22;19953;-83
2022/11/11 06:44:46;;;;;;;;;;;;;;;11.43;100.00;102241.09;6311238;22;19938;-83
2022/11/11 06:47:30;;;;;;;;;;;;;;;11.50;100.00;102241.44;6311928;22;19967;-84
2022/11/11 06:50:14;;;;;;;;;;;;;;;11.48;100.00;102244.19;6311325;22;19972;-83
2022/11/11 06:53:05;;;;;;;;;;;;;;;11.46;100.00;102250.63;6308445;22;20142;-83
2022/11/11 06:55:50;;;;;;;;;;;;;;;11.49;100.00;102256.53;6311742;22;19917;-86
2022/11/11 06:58:34;;;;;;;;;;;;;;;11.52;100.00;102256.25;6310073;22;19933;-82
2022/11/11 07:01:18;;;;;;;;;;;;;;;11.56;100.00;102246.25;6311888;22;19914;-83
2022/11/11 07:04:02;;;;;;;;;;;;;;;11.62;100.00;102254.53;6309052;22;20256;-82
2022/11/11 07:06:46;;;;;;;;;;;;;;;11.53;100.00;102250.00;6310250;22;19941;-80
2022/11/11 07:09:30;;;;;;;;;;;;;;;11.61;100.00;102255.50;6310134;22;19925;-82
2022/11/11 07:12:14;;;;;;;;;;;;;;;11.74;100.00;102255.34;6310392;22;20337;-83
2022/11/11 07:14:58;;;;;;;;;;;;;;;11.65;100.00;102254.28;6311702;22;19914;-83
2022/11/11 07:17:41;;;;;;;;;;;;;;;11.63;100.00;102250.94;6310217;22;19964;-81
2022/11/11 07:20:28;;;;;;;;;;;;;;;11.63;100.00;102252.72;6308824;22;19917;-85
2022/11/11 07:23:12;;;;;;;;;;;;;;;11.84;100.00;102256.28;6312483;22;19953;-84
2022/11/11 07:25:56;;;;;;;;;;;;;;;11.81;100.00;102261.84;6310406;22;20250;-83
2022/11/11 07:28:40;;;;;;;;;;;;;;;11.87;100.00;102262.19;6310231;22;20372;-83
2022/11/11 07:31:24;;;;;;;;;;;;;;;11.84;100.00;102262.44;6307960;22;20372;-83
2022/11/11 07:34:08;;;;;;;;;;;;;;;11.77;100.00;102257.75;6308141;22;20025;-84
2022/11/11 07:36:52;;;;;;;;;;;;;;;11.87;100.00;102251.56;6322137;22;19901;-85
2022/11/11 07:39:36;;;;;;;;;;;;;;;11.85;100.00;102252.66;6335896;22;19925;-87
2022/11/11 07:42:20;;;;;;;;;;;;;;;11.77;100.00;102249.78;6333631;22;19905;-85
2022/11/11 07:45:05;;;;;;;;;;;;;;;11.78;100.00;102251.47;6334073;22;19941;-86
2022/11/11 07:47:49;;;;;;;;;;;;;;;11.76;100.00;102248.13;6334032;22;19906;-84
2022/11/11 07:50:33;;;;;;;;;;;;;;;11.77;100.00;102250.63;6322030;22;19917;-85
2022/11/11 07:53:17;;;;;;;;;;;;;;;11.80;100.00;102249.53;6311666;22;19972;-84
2022/11/11 07:56:01;;;;;;;;;;;;;;;11.80;100.00;102253.03;6287942;22;19972;-86
2022/11/11 07:58:45;;;;;;;;;;;;;;;11.89;100.00;102252.28;6310378;22;19964;-83
2022/11/11 08:01:28;;;;;;;;;;;;;;;11.93;100.00;102255.53;6310327;22;20390;-84
2022/11/11 08:04:12;;;;;;;;;;;;;;;12.03;100.00;102250.28;6310569;22;19957;-86
2022/11/11 08:06:58;;;;;;;;;;;;;;;12.00;100.00;102255.84;6310261;22;19918;-84
2022/11/11 08:09:41;;;;;;;;;;;;;;;12.00;100.00;102261.19;6310046;22;20341;-84
2022/11/11 08:15:28;;;;;;;;;;;;;;;12.11;100.00;102258.44;6310211;22;20357;-82
2022/11/11 08:18:12;;;;;;;;;;;;;;;12.11;100.00;102255.78;6310308;22;20424;-83
2022/11/11 08:20:57;;;;;;;;;;;;;;;12.19;100.00;102262.16;6311125;22;20065;-85
2022/11/11 08:23:40;;;;;;;;;;;;;;;12.15;100.00;102265.19;6310619;22;20383;-84
2022/11/11 08:26:24;;;;;;;;;;;;;;;12.17;100.00;102265.88;6310584;22;19918;-86
2022/11/11 08:29:08;;;;;;;;;;;;;;;12.23;100.00;102260.88;6316627;22;19918;-84
2022/11/11 08:31:52;;;;;;;;;;;;;;;12.39;100.00;102271.09;6310390;22;19917;-84
2022/11/11 08:34:36;;;;;;;;;;;;;;;12.29;100.00;102278.16;6313208;22;20440;-85
2022/11/11 08:37:20;;;;;;;;;;;;;;;12.42;100.00;102284.97;6314822;22;19921;-85
2022/11/11 08:40:05;;;;;;;;;;;;;;;12.49;100.00;102290.59;6316594;22;19922;-83
2022/11/11 08:42:57;;;;;;;;;;;;;;;12.62;100.00;102291.22;6314407;22;19929;-83
2022/11/11 08:45:41;;;;;;;;;;;;;;;12.75;100.00;102296.31;6267405;22;19977;-84
2022/11/11 08:48:25;;;;;;;;;;;;;;;12.68;100.00;102301.34;6311595;22;20250;-84
2022/11/11 08:51:09;;;;;;;;;;;;;;;12.70;100.00;102304.69;6310478;22;19914;-84
2022/11/11 08:53:53;;;;;;;;;;;;;;;12.74;100.00;102299.94;6310103;22;20254;-83
2022/11/11 08:56:37;;;;;;;;;;;;;;;12.74;100.00;102299.94;6318600;22;19945;-83
2022/11/11 08:59:38;;;;;;;;;;;;;;;12.87;100.00;102296.09;6328585;22;19906;-82
2022/11/11 09:02:27;;;;;;;;;;;;;;;12.98;100.00;102297.81;6329661;22;19914;-83
2022/11/11 09:05:11;;;;;;;;;;;;;;;13.08;100.00;102303.19;6326908;22;20245;-84
2022/11/11 09:07:55;;;;;;;;;;;;;;;13.22;100.00;102290.38;6312745;22;19964;-85
2022/11/11 09:10:39;;;;;;;;;;;;;;;13.46;100.00;102293.50;6310711;22;19937;-84
2022/11/11 09:13:23;;;;;;;;;;;;;;;13.39;100.00;102303.00;6311651;22;19918;-85
2022/11/11 09:16:08;;;;;;;;;;;;;;;13.48;100.00;102311.16;6287940;22;20380;-83
2022/11/11 09:18:52;;;;;;;;;;;;;;;13.40;100.00;102309.19;6294382;22;19939;-84
2022/11/11 09:21:36;;;;;;;;;;;;;;;13.44;100.00;102310.59;6337618;22;19956;-84
2022/11/11 09:24:20;;;;;;;;;;;;;;;13.45;100.00;102312.28;6337186;22;19905;-85
2022/11/11 09:27:04;;;;;;;;;;;;;;;13.65;100.00;102318.50;6329811;22;19937;-84
2022/11/11 09:29:48;;;;;;;;;;;;;;;13.69;100.00;102320.72;6314992;22;19914;-83
2022/11/11 09:32:33;;;;;;;;;;;;;;;13.78;100.00;102329.72;6287201;22;20383;-86
2022/11/11 09:35:17;;;;;;;;;;;;;;;13.78;100.00;102324.41;6286827;22;19914;-85
2022/11/11 09:38:01;;;;;;;;;;;;;;;13.83;100.00;102331.00;6288460;22;19921;-86
2022/11/11 09:40:54;;;;;;;;;;;;;;;13.85;100.00;102323.69;6290280;22;19972;-85
2022/11/11 09:44:07;;;;;;;;;;;;;;;13.78;100.00;102327.91;6316606;22;20380;-85
2022/11/11 09:47:26;;;;;;;;;;;;;;;13.76;100.00;102331.69;6309870;22;19917;-85
2022/11/11 09:50:13;;;;;;;;;;;;;;;13.80;100.00;102331.28;6193454;23;19919;-84
2022/11/11 09:53:09;;;;;;;;;;;;;;;13.99;100.00;102333.94;6325806;22;19921;-87
2022/11/11 09:56:08;;;;;;;;;;;;;;;14.12;100.00;102332.84;6299052;22;19921;-85
2022/11/11 09:58:57;;;;;;;;;;;;;;;14.10;100.00;102340.97;6315800;22;19956;-88
2022/11/11 10:01:43;;;;;;;;;;;;;;;14.37;100.00;102337.59;6315552;22;19918;-83
2022/11/11 10:04:46;;;;;;;;;;;;;;;14.23;100.00;102335.34;6291959;22;19917;-85
2022/11/11 10:07:49;;;;;;;;;;;;;;;14.16;100.00;102339.53;6316178;22;20002;-86
2022/11/11 10:10:37;;;;;;;;;;;;;;;14.24;100.00;102334.38;6320324;22;19942;-84
2022/11/11 10:13:34;;;;;;;;;;;;;;;14.36;100.00;102330.59;6324468;22;19956;-84
2022/11/11 10:16:28;;;;;;;;;;;;;;;14.47;100.00;102325.94;6311002;22;20246;-85
2022/11/11 10:19:24;;;;;;;;;;;;;;;14.41;100.00;102328.34;6309254;22;19917;-84
2022/11/11 10:22:18;;;;;;;;;;;;;;;14.53;100.00;102321.84;6312997;22;20304;-86
2022/11/11 10:25:07;;;;;;;;;;;;;;;14.71;100.00;102319.28;6315266;22;19917;-86
2022/11/11 10:27:52;;;;;;;;;;;;;;;14.60;100.00;102322.97;6330854;22;19925;-84
2022/11/11 10:30:36;;;;;;;;;;;;;;;14.68;100.00;102317.72;6292951;22;19971;-84
2022/11/11 10:33:26;;;;;;;;;;;;;;;14.69;100.00;102321.25;6309584;22;19941;-85
2022/11/11 10:36:14;;;;;;;;;;;;;;;14.64;100.00;102319.03;6308493;22;20413;-84
2022/11/11 10:39:02;;;;;;;;;;;;;;;14.75;100.00;102321.50;6285797;22;19968;-83
2022/11/11 10:41:48;;;;;;;;;;;;;;;14.96;100.00;102318.63;6308910;22;20291;-86
2022/11/11 10:44:36;;;;;;;;;;;;;;;15.19;100.00;102309.25;6312272;22;20293;-86
2022/11/11 10:47:41;;;;;;;;;;;;;;;15.24;100.00;102303.47;6285972;22;20246;-84
2022/11/11 10:50:30;;;;;;;;;;;;;;;15.43;100.00;102306.00;6308385;22;19917;-86
2022/11/11 10:53:13;;;;;;;;;;;;;;;15.60;100.00;102307.91;6308293;22;20241;-86
2022/11/11 10:56:02;;;;;;;;;;;;;;;15.56;100.00;102301.19;6308748;22;19980;-86
2022/11/11 10:58:46;;;;;;;;;;;;;;;15.35;100.00;102303.25;6308320;22;19978;-86
2022/11/11 11:01:37;;;;;;;;;;;;;;;15.39;100.00;102299.28;6308369;22;19998;-84
2022/11/11 11:04:30;;;;;;;;;;;;;;;15.31;100.00;102291.19;6284892;22;19998;-86
2022/11/11 11:07:18;;;;;;;;;;;;;;;15.33;100.00;102294.53;6308731;22;20002;-85
2022/11/11 11:10:05;;;;;;;;;;;;;;;15.17;100.00;102287.19;6308420;22;20234;-83
2022/11/11 11:12:55;;;;;;;;;;;;;;;15.01;100.00;102285.13;6308438;22;19991;-86
2022/11/11 11:15:43;;;;;;;;;;;;;;;15.10;100.00;102282.59;6308538;22;19918;-84
2022/11/11 11:18:27;;;;;;;;;;;;;;;15.33;100.00;102273.16;6285191;22;19957;-86
2022/11/11 11:21:11;;;;;;;;;;;;;;;15.21;100.00;102274.38;6286016;22;19972;-84
2022/11/11 11:23:55;;;;;;;;;;;;;;;15.62;100.00;102262.31;6311114;22;19918;-84
2022/11/11 11:26:44;;;;;;;;;;;;;;;15.78;100.00;102268.63;6315224;22;19973;-84
2022/11/11 11:29:35;;;;;;;;;;;;;;;15.71;100.00;102272.91;6316275;22;19918;-86
2022/11/11 11:32:20;;;;;;;;;;;;;;;15.73;100.00;102264.75;6310870;22;19933;-88
2022/11/11 11:35:04;;;;;;;;;;;;;;;15.62;100.00;102268.50;6310324;22;20079;-85
2022/11/11 11:37:49;;;;;;;;;;;;;;;15.55;100.00;102264.75;6310173;22;20222;-83
2022/11/11 11:40:47;;;;;;;;;;;;;;;15.47;100.00;102252.13;6310223;22;19917;-86
2022/11/11 11:43:35;;;;;;;;;;;;;;;15.57;100.00;102265.44;6287720;22;19953;-85
2022/11/11 11:46:34;;;;;;;;;;;;;;;16.06;100.00;102265.88;6311004;22;19918;-84
2022/11/11 11:49:50;;;;;;;;;;;;;;;16.02;100.00;102260.84;6312324;22;19937;-85
2022/11/11 11:52:56;;;;;;;;;;;;;;;15.91;100.00;102252.19;6283788;22;19930;-84
2022/11/11 11:55:47;;;;;;;;;;;;;;;15.97;100.00;102255.09;6315549;22;19917;-86
2022/11/11 11:58:31;;;;;;;;;;;;;;;15.95;100.00;102249.06;6311475;22;19917;-85
2022/11/11 12:01:15;;;;;;;;;;;;;;;15.93;100.00;102248.41;6288789;22;20256;-86
2022/11/11 12:04:17;;;;;;;;;;;;;;;16.02;100.00;102250.13;6312781;22;19964;-85
2022/11/11 12:07:05;;;;;;;;;;;;;;;16.27;100.00;102236.94;6327703;22;19957;-86
2022/11/11 12:09:52;;;;;;;;;;;;;;;16.27;100.00;102242.28;6332945;22;19925;-83
2022/11/11 12:12:42;;;;;;;;;;;;;;;16.49;100.00;102239.06;6334306;22;19952;-82
2022/11/11 12:15:37;;;;;;;;;;;;;;;16.43;100.00;102231.69;6313203;22;19918;-87
2022/11/11 12:18:21;;;;;;;;;;;;;;;16.34;100.00;102227.28;6311382;22;19918;-83
2022/11/11 12:21:11;;;;;;;;;;;;;;;16.47;100.00;102227.72;6313001;22;19933;-86
2022/11/11 12:24:04;;;;;;;;;;;;;;;16.22;100.00;102225.84;6321827;22;20016;-83
2022/11/11 12:27:03;;;;;;;;;;;;;;;16.01;100.00;102218.19;6326412;22;19995;-86
2022/11/11 12:30:04;;;;;;;;;;;;;;;15.89;100.00;102227.47;6328633;22;19918;-85
2022/11/11 12:33:08;;;;;;;;;;;;;;;16.19;100.00;102212.81;6307675;22;19934;-86
2022/11/11 12:35:59;;;;;;;;;;;;;;;16.11;100.00;102221.59;6327935;22;20271;-86
2022/11/11 12:39:02;;;;;;;;;;;;;;;16.00;100.00;102217.38;6314528;22;19925;-86
2022/11/11 12:41:46;;;;;;;;;;;;;;;15.86;100.00;102215.25;6312565;22;20349;-85
2022/11/11 12:44:38;;;;;;;;;;;;;;;15.94;100.00;102215.28;6312879;22;19918;-85
2022/11/11 12:47:30;;;;;;;;;;;;;;;16.18;100.00;102214.63;6312677;22;19956;-86
2022/11/11 12:50:21;;;;;;;;;;;;;;;16.32;100.00;102208.72;6313821;22;20340;-88
2022/11/11 12:53:29;;;;;;;;;;;;;;;16.35;100.00;102212.91;6311601;22;19917;-86
2022/11/11 12:56:32;;;;;;;;;;;;;;;16.10;100.00;102213.75;6312478;22;19917;-87
2022/11/11 12:59:15;;;;;;;;;;;;;;;16.15;100.00;102211.44;6310128;22;19922;-85
2022/11/11 13:02:05;;;;;;;;;;;;;;;16.10;100.00;102211.06;6309997;22;19918;-88
2022/11/11 13:05:06;;;;;;;;;;;;;;;16.28;100.00;102207.34;6309814;22;19917;-85
2022/11/11 13:07:56;;;;;;;;;;;;;;;16.13;100.00;102208.09;6308976;22;20055;-87
2022/11/11 13:10:46;;;;;;;;;;;;;;;16.26;100.00;102203.16;6309680;22;19918;-88
2022/11/11 13:13:49;;;;;;;;;;;;;;;16.41;100.00;102197.03;6310223;22;19917;-87
2022/11/11 13:16:33;;;;;;;;;;;;;;;16.24;100.00;102205.97;6312079;22;19998;-83
2022/11/11 13:19:32;;;;;;;;;;;;;;;16.81;100.00;102207.13;6320349;22;19918;-86
2022/11/11 13:22:24;;;;;;;;;;;;;;;16.53;100.00;102206.50;6311375;22;19957;-85
2022/11/11 13:25:13;;;;;;;;;;;;;;;16.47;100.00;102203.63;6312087;22;20287;-87
2022/11/11 13:28:12;;;;;;;;;;;;;;;16.38;100.00;102207.22;6286142;22;19917;-87
2022/11/11 13:30:55;;;;;;;;;;;;;;;16.62;100.00;102211.91;6310213;22;19917;-86
2022/11/11 13:33:42;;;;;;;;;;;;;;;16.29;100.00;102208.19;6309072;22;19995;-83
2022/11/11 13:36:28;;;;;;;;;;;;;;;16.48;100.00;102206.13;6308811;22;20000;-85
2022/11/11 13:39:22;;;;;;;;;;;;;;;16.51;100.00;102208.47;6308934;22;20012;-86
2022/11/11 13:42:08;;;;;;;;;;;;;;;16.32;100.00;102206.03;6309167;22;20043;-84
2022/11/11 13:44:54;;;;;;;;;;;;;;;16.30;100.00;102215.22;6285555;22;19957;-83
2022/11/11 13:47:43;;;;;;;;;;;;;;;16.17;100.00;102207.63;6308693;22;19914;-84
2022/11/11 13:50:32;;;;;;;;;;;;;;;16.08;100.00;102205.88;6310103;22;19922;-86
2022/11/11 13:53:29;;;;;;;;;;;;;;;15.84;100.00;102203.84;6312111;22;19917;-84
2022/11/11 13:56:36;;;;;;;;;;;;;;;15.71;100.00;102214.09;6312315;22;20332;-83
2022/11/11 13:59:20;;;;;;;;;;;;;;;16.08;100.00;102215.72;6308842;22;19936;-83
2022/11/11 14:02:20;;;;;;;;;;;;;;;15.98;100.00;102210.47;6312266;22;19957;-87
2022/11/11 14:05:04;;;;;;;;;;;;;;;15.98;100.00;102215.81;6315436;22;20389;-83
2022/11/11 14:07:51;;;;;;;;;;;;;;;15.83;100.00;102217.41;6316256;22;19921;-85
2022/11/11 14:10:35;;;;;;;;;;;;;;;15.76;100.00;102206.47;6315906;22;19917;-86
2022/11/11 14:13:19;;;;;;;;;;;;;;;15.66;100.00;102211.06;6311438;22;19917;-86
2022/11/11 14:16:04;;;;;;;;;;;;;;;15.73;100.00;102217.47;6308318;22;20459;-84
2022/11/11 14:18:48;;;;;;;;;;;;;;;15.75;100.00;102223.50;6308057;22;19925;-86
2022/11/11 14:22:01;;;;;;;;;;;;;;;15.81;100.00;102214.84;6285121;22;19914;-87
2022/11/11 14:24:46;;;;;;;;;;;;;;;15.94;100.00;102214.47;6298520;22;19964;-83
2022/11/11 14:27:32;;;;;;;;;;;;;;;15.90;100.00;102216.63;6308327;22;19929;-83
2022/11/11 14:30:27;;;;;;;;;;;;;;;16.14;100.00;102212.44;6308653;22;19933;-87
2022/11/11 14:33:19;;;;;;;;;;;;;;;15.81;100.00;102201.50;6308350;22;19933;-84
2022/11/11 14:36:11;;;;;;;;;;;;;;;15.82;100.00;102200.50;6308596;22;19994;-86
2022/11/11 14:39:04;;;;;;;;;;;;;;;15.74;100.00;102208.44;6309432;22;19922;-82
2022/11/11 14:41:50;;;;;;;;;;;;;;;15.67;100.00;102211.91;6312951;22;19918;-82
2022/11/11 14:44:34;;;;;;;;;;;;;;;15.74;100.00;102213.78;6310779;22;20033;-86
2022/11/11 14:47:22;;;;;;;;;;;;;;;15.65;100.00;102205.88;6306609;22;20198;-85
2022/11/11 14:50:32;;;;;;;;;;;;;;;15.63;100.00;102206.03;6306513;22;20230;-87
2022/11/11 14:53:18;;;;;;;;;;;;;;;15.66;100.00;102203.06;6306382;22;19921;-86
2022/11/11 14:56:03;;;;;;;;;;;;;;;15.56;100.00;102202.28;6283918;22;19934;-83
2022/11/11 14:58:47;;;;;;;;;;;;;;;15.53;100.00;102191.91;6307094;22;19964;-86
2022/11/11 15:01:31;;;;;;;;;;;;;;;15.57;100.00;102192.44;6307846;22;20226;-84
2022/11/11 15:04:15;;;;;;;;;;;;;;;15.64;100.00;102191.69;6307921;22;19964;-85
2022/11/11 15:07:00;;;;;;;;;;;;;;;15.61;100.00;102188.47;6307799;22;19917;-85
2022/11/11 15:10:02;;;;;;;;;;;;;;;15.62;100.00;102188.31;6285347;22;20344;-86
2022/11/11 15:13:02;;;;;;;;;;;;;;;15.66;100.00;102179.00;6308287;22;20002;-86
2022/11/11 15:15:59;;;;;;;;;;;;;;;15.37;100.00;102183.72;6308094;22;19918;-86
2022/11/11 15:18:43;;;;;;;;;;;;;;;15.28;100.00;102187.31;6284781;22;20280;-86
2022/11/11 15:21:32;;;;;;;;;;;;;;;15.21;100.00;102195.06;6307956;22;19917;-84
2022/11/11 15:24:23;;;;;;;;;;;;;;;15.35;100.00;102185.69;6308185;22;19918;-85
2022/11/11 15:27:06;;;;;;;;;;;;;;;15.11;100.00;102188.97;6307914;22;19917;-87